createdAt,value
2023-02-07T00:00:09.125Z,22.83
2023-02-07T00:00:45.826Z,22.83
2023-02-07T00:01:21.793Z,22.84
2023-02-07T00:01:57.912Z,22.81
2023-02-07T00:02:33.777Z,22.82
2023-02-07T00:03:10.145Z,22.85
2023-02-07T00:03:46.177Z,22.85
2023-02-07T00:04:22.942Z,22.85
2023-02-07T00:04:59.666Z,22.85
2023-02-07T00:05:36.218Z,22.84
2023-02-07T00:06:12.368Z,22.82
2023-02-07T00:06:47.988Z,22.81
2023-02-07T00:07:24.494Z,22.83
2023-02-07T00:08:00.304Z,22.83
2023-02-07T00:08:37.612Z,22.81
2023-02-07T00:09:13.783Z,22.83
2023-02-07T00:09:50.333Z,22.81
2023-02-07T00:10:26.358Z,22.82
2023-02-07T00:11:03.303Z,22.81
2023-02-07T00:11:39.555Z,22.83
2023-02-07T00:12:15.367Z,22.85
2023-02-07T00:12:51.712Z,22.82
2023-02-07T00:13:27.191Z,22.83
2023-02-07T00:14:04.041Z,22.84
2023-02-07T00:14:40.926Z,22.81
2023-02-07T00:15:16.517Z,22.84
2023-02-07T00:15:51.983Z,22.83
2023-02-07T00:16:28.385Z,22.82
2023-02-07T00:17:04.769Z,22.80
2023-02-07T00:17:41.039Z,22.82
2023-02-07T00:18:16.896Z,22.82
2023-02-07T00:18:52.463Z,22.82
2023-02-07T00:19:28.916Z,22.84
2023-02-07T00:20:05.706Z,22.81
2023-02-07T00:20:41.763Z,22.82
2023-02-07T00:21:18.477Z,22.86
2023-02-07T00:21:54.691Z,22.83
2023-02-07T00:22:31.296Z,22.83
2023-02-07T00:23:08.147Z,22.85
2023-02-07T00:23:44.385Z,22.82
2023-02-07T00:24:19.772Z,22.83
2023-02-07T00:24:56.328Z,22.83
2023-02-07T00:25:32.427Z,22.85
2023-02-07T00:26:08.956Z,22.83
2023-02-07T00:26:44.364Z,22.82
2023-02-07T00:27:19.866Z,22.84
2023-02-07T00:27:56.308Z,22.83
2023-02-07T00:28:32.771Z,22.83
2023-02-07T00:29:08.919Z,22.82
2023-02-07T00:29:45.413Z,22.81
2023-02-07T00:30:22.049Z,22.84
2023-02-07T00:30:58.566Z,22.83
2023-02-07T00:31:35.379Z,22.83
2023-02-07T00:32:10.949Z,22.82
2023-02-07T00:32:46.385Z,22.82
2023-02-07T00:33:22.869Z,22.83
2023-02-07T00:33:59.417Z,22.83
2023-02-07T00:34:35.502Z,22.79
2023-02-07T00:35:12.114Z,22.79
2023-02-07T00:35:47.980Z,22.84
2023-02-07T00:36:24.404Z,22.83
2023-02-07T00:37:00.270Z,22.84
2023-02-07T00:37:36.752Z,22.83
2023-02-07T00:38:12.661Z,22.81
2023-02-07T00:38:49.110Z,22.82
2023-02-07T00:39:25.317Z,22.81
2023-02-07T00:40:01.922Z,22.81
2023-02-07T00:40:37.724Z,22.83
2023-02-07T00:41:13.759Z,22.83
2023-02-07T00:41:50.165Z,22.81
2023-02-07T00:42:26.104Z,22.82
2023-02-07T00:43:02.738Z,22.83
2023-02-07T00:43:39.107Z,22.85
2023-02-07T00:44:15.287Z,22.82
2023-02-07T00:44:51.812Z,22.81
2023-02-07T00:45:28.249Z,22.81
2023-02-07T00:46:03.830Z,22.82
2023-02-07T00:46:39.951Z,22.78
2023-02-07T00:47:16.517Z,22.79
2023-02-07T00:47:52.978Z,22.81
2023-02-07T00:48:28.998Z,22.79
2023-02-07T00:49:05.475Z,22.79
2023-02-07T00:49:41.979Z,22.81
2023-02-07T00:50:17.679Z,22.81
2023-02-07T00:50:53.483Z,22.81
2023-02-07T00:51:29.701Z,22.79
2023-02-07T00:52:06.094Z,22.81
2023-02-07T00:52:42.091Z,22.80
2023-02-07T00:53:18.800Z,22.81
2023-02-07T00:53:55.430Z,22.80
2023-02-07T00:54:31.454Z,22.80
2023-02-07T00:55:07.359Z,22.80
2023-02-07T00:55:43.392Z,22.81
2023-02-07T00:56:19.054Z,22.79
2023-02-07T00:56:55.462Z,22.81
2023-02-07T00:57:31.724Z,22.79
2023-02-07T00:58:07.734Z,22.79
2023-02-07T00:58:44.125Z,22.82
2023-02-07T00:59:20.619Z,22.80
2023-02-07T00:59:56.881Z,22.78
2023-02-07T01:00:33.118Z,22.77
2023-02-07T01:01:09.845Z,22.78
2023-02-07T01:01:45.505Z,22.81
2023-02-07T01:02:21.306Z,22.78
2023-02-07T01:02:57.736Z,22.80
2023-02-07T01:03:34.597Z,22.82
2023-02-07T01:04:10.774Z,22.78
2023-02-07T01:04:46.913Z,22.79
2023-02-07T01:05:23.253Z,22.81
2023-02-07T01:05:59.540Z,22.81
2023-02-07T01:06:35.602Z,22.83
2023-02-07T01:07:11.013Z,22.81
2023-02-07T01:07:47.280Z,22.80
2023-02-07T01:08:22.693Z,22.81
2023-02-07T01:08:59.577Z,22.79
2023-02-07T01:09:35.874Z,22.80
2023-02-07T01:10:12.070Z,22.79
2023-02-07T01:10:47.467Z,22.81
2023-02-07T01:11:23.159Z,22.81
2023-02-07T01:11:59.843Z,22.81
2023-02-07T01:12:36.293Z,22.83
2023-02-07T01:13:12.819Z,22.81
2023-02-07T01:13:49.131Z,22.81
2023-02-07T01:14:25.624Z,22.77
2023-02-07T01:15:04.686Z,22.79
2023-02-07T01:15:41.197Z,22.79
2023-02-07T01:16:17.426Z,22.80
2023-02-07T01:16:53.572Z,22.80
2023-02-07T01:17:29.809Z,22.79
2023-02-07T01:18:06.054Z,22.81
2023-02-07T01:18:42.664Z,22.81
2023-02-07T01:19:18.509Z,22.81
2023-02-07T01:19:54.590Z,22.79
2023-02-07T01:20:31.395Z,22.77
2023-02-07T01:21:07.256Z,22.76
2023-02-07T01:21:42.667Z,22.75
2023-02-07T01:22:18.954Z,22.78
2023-02-07T01:22:55.604Z,22.78
2023-02-07T01:23:32.516Z,22.78
2023-02-07T01:24:09.550Z,22.79
2023-02-07T01:24:45.726Z,22.79
2023-02-07T01:25:22.282Z,22.79
2023-02-07T01:25:58.787Z,22.82
2023-02-07T01:26:35.007Z,22.76
2023-02-07T01:27:10.786Z,22.78
2023-02-07T01:27:47.555Z,22.78
2023-02-07T01:28:23.851Z,22.80
2023-02-07T01:29:00.385Z,22.76
2023-02-07T01:29:36.867Z,22.79
2023-02-07T01:30:13.526Z,22.77
2023-02-07T01:30:49.778Z,22.79
2023-02-07T01:31:26.121Z,22.77
2023-02-07T01:32:01.736Z,22.77
2023-02-07T01:32:37.247Z,22.77
2023-02-07T01:33:13.673Z,22.77
2023-02-07T01:33:49.775Z,22.79
2023-02-07T01:34:26.475Z,22.79
2023-02-07T01:35:03.801Z,22.80
2023-02-07T01:35:39.811Z,22.77
2023-02-07T01:36:16.051Z,22.77
2023-02-07T01:36:52.442Z,22.81
2023-02-07T01:37:28.151Z,22.76
2023-02-07T01:38:04.019Z,22.76
2023-02-07T01:38:39.836Z,22.76
2023-02-07T01:39:16.652Z,22.76
2023-02-07T01:39:52.780Z,22.77
2023-02-07T01:40:29.337Z,22.79
2023-02-07T01:41:05.476Z,22.76
2023-02-07T01:41:42.086Z,22.76
2023-02-07T01:42:17.886Z,22.77
2023-02-07T01:42:54.668Z,22.79
2023-02-07T01:43:30.797Z,22.80
2023-02-07T01:44:07.426Z,22.78
2023-02-07T01:44:43.880Z,22.81
2023-02-07T01:45:20.532Z,22.76
2023-02-07T01:45:57.124Z,22.74
2023-02-07T01:46:33.181Z,22.78
2023-02-07T01:47:08.645Z,22.78
2023-02-07T01:47:45.500Z,22.77
2023-02-07T01:48:21.579Z,22.79
2023-02-07T01:48:57.680Z,22.77
2023-02-07T01:49:33.992Z,22.79
2023-02-07T01:50:09.897Z,22.77
2023-02-07T01:50:45.969Z,22.77
2023-02-07T01:51:22.380Z,22.81
2023-02-07T01:51:58.272Z,22.78
2023-02-07T01:52:34.399Z,22.79
2023-02-07T01:53:11.558Z,22.80
2023-02-07T01:53:47.718Z,22.79
2023-02-07T01:54:23.798Z,22.81
2023-02-07T01:55:00.440Z,22.78
2023-02-07T01:55:37.573Z,22.76
2023-02-07T01:56:20.134Z,22.78
2023-02-07T01:56:57.917Z,22.76
2023-02-07T01:57:33.718Z,22.77
2023-02-07T01:58:09.885Z,22.76
2023-02-07T01:58:46.889Z,22.77
2023-02-07T01:59:23.112Z,22.75
2023-02-07T01:59:59.046Z,22.77
2023-02-07T02:00:35.486Z,22.77
2023-02-07T02:01:11.996Z,22.79
2023-02-07T02:01:48.744Z,22.77
2023-02-07T02:02:24.821Z,22.75
2023-02-07T02:03:00.721Z,22.76
2023-02-07T02:03:37.100Z,22.75
2023-02-07T02:04:13.766Z,22.76
2023-02-07T02:04:49.824Z,22.76
2023-02-07T02:05:26.009Z,22.79
2023-02-07T02:06:03.114Z,22.82
2023-02-07T02:06:39.303Z,22.78
2023-02-07T02:07:15.613Z,22.78
2023-02-07T02:07:51.783Z,22.76
2023-02-07T02:08:27.603Z,22.78
2023-02-07T02:09:03.940Z,22.79
2023-02-07T02:09:39.899Z,22.78
2023-02-07T02:10:16.552Z,22.77
2023-02-07T02:10:52.898Z,22.76
2023-02-07T02:11:29.070Z,22.76
2023-02-07T02:12:05.186Z,22.76
2023-02-07T02:12:41.634Z,22.74
2023-02-07T02:13:17.683Z,22.76
2023-02-07T02:13:53.228Z,22.76
2023-02-07T02:14:29.908Z,22.76
2023-02-07T02:15:07.111Z,22.72
2023-02-07T02:15:43.696Z,22.78
2023-02-07T02:16:20.001Z,22.79
2023-02-07T02:16:56.473Z,22.77
2023-02-07T02:17:32.991Z,22.79
2023-02-07T02:18:09.365Z,22.77
2023-02-07T02:18:45.760Z,22.78
2023-02-07T02:19:21.575Z,22.75
2023-02-07T02:19:57.560Z,22.77
2023-02-07T02:20:34.599Z,22.76
2023-02-07T02:21:10.810Z,22.77
2023-02-07T02:21:47.334Z,22.76
2023-02-07T02:22:24.036Z,22.76
2023-02-07T02:23:00.373Z,22.76
2023-02-07T02:23:36.721Z,22.77
2023-02-07T02:24:13.113Z,22.75
2023-02-07T02:24:48.246Z,22.75
2023-02-07T02:25:24.916Z,22.76
2023-02-07T02:26:01.000Z,22.78
2023-02-07T02:26:37.142Z,22.77
2023-02-07T02:27:13.731Z,22.77
2023-02-07T02:27:50.234Z,22.76
2023-02-07T02:28:26.606Z,22.76
2023-02-07T02:29:02.964Z,22.77
2023-02-07T02:29:39.088Z,22.77
2023-02-07T02:30:15.051Z,22.79
2023-02-07T02:30:51.600Z,22.78
2023-02-07T02:31:27.982Z,22.78
2023-02-07T02:32:04.212Z,22.81
2023-02-07T02:32:40.433Z,22.77
2023-02-07T02:33:16.626Z,22.76
2023-02-07T02:33:53.105Z,22.76
2023-02-07T02:34:29.308Z,22.76
2023-02-07T02:35:05.911Z,22.77
2023-02-07T02:35:41.725Z,22.74
2023-02-07T02:36:18.478Z,22.77
2023-02-07T02:36:54.890Z,22.77
2023-02-07T02:37:31.421Z,22.75
2023-02-07T02:38:07.622Z,22.76
2023-02-07T02:38:43.610Z,22.76
2023-02-07T02:39:20.547Z,22.76
2023-02-07T02:39:57.338Z,22.74
2023-02-07T02:40:33.382Z,22.75
2023-02-07T02:41:09.313Z,22.74
2023-02-07T02:41:45.260Z,22.75
2023-02-07T02:42:21.349Z,22.73
2023-02-07T02:42:58.280Z,22.76
2023-02-07T02:43:34.303Z,22.76
2023-02-07T02:44:10.778Z,22.76
2023-02-07T02:44:47.108Z,22.77
2023-02-07T02:45:23.632Z,22.76
2023-02-07T02:45:59.113Z,22.74
2023-02-07T02:46:35.045Z,22.76
2023-02-07T02:47:11.291Z,22.75
2023-02-07T02:47:47.628Z,22.77
2023-02-07T02:48:23.664Z,22.81
2023-02-07T02:48:59.700Z,22.78
2023-02-07T02:49:36.189Z,22.76
2023-02-07T02:50:12.928Z,22.75
2023-02-07T02:50:49.617Z,22.74
2023-02-07T02:51:25.939Z,22.74
2023-02-07T02:52:01.650Z,22.77
2023-02-07T02:52:50.264Z,22.75
2023-02-07T02:53:26.315Z,22.75
2023-02-07T02:54:02.040Z,22.77
2023-02-07T02:54:38.306Z,22.73
2023-02-07T02:55:15.126Z,22.75
2023-02-07T02:55:51.849Z,22.77
2023-02-07T02:56:28.527Z,22.77
2023-02-07T02:57:05.196Z,22.75
2023-02-07T02:57:40.767Z,22.73
2023-02-07T02:58:16.182Z,22.76
2023-02-07T02:58:52.532Z,22.77
2023-02-07T02:59:28.989Z,22.77
2023-02-07T03:00:06.149Z,22.77
2023-02-07T03:00:42.419Z,22.75
2023-02-07T03:01:18.655Z,22.75
2023-02-07T03:01:55.119Z,22.77
2023-02-07T03:02:31.790Z,22.74
2023-02-07T03:03:07.906Z,22.77
2023-02-07T03:03:43.638Z,22.76
2023-02-07T03:04:20.018Z,22.77
2023-02-07T03:04:56.527Z,22.75
2023-02-07T03:05:33.272Z,22.74
2023-02-07T03:06:09.579Z,22.75
2023-02-07T03:06:45.924Z,22.75
2023-02-07T03:07:22.335Z,22.75
2023-02-07T03:07:59.153Z,22.73
2023-02-07T03:08:34.643Z,22.72
2023-02-07T03:09:10.459Z,22.73
2023-02-07T03:09:46.629Z,22.74
2023-02-07T03:10:22.738Z,22.77
2023-02-07T03:10:59.879Z,22.77
2023-02-07T03:11:36.413Z,22.74
2023-02-07T03:12:13.218Z,22.74
2023-02-07T03:12:48.972Z,22.72
2023-02-07T03:13:24.923Z,22.72
2023-02-07T03:14:01.054Z,22.73
2023-02-07T03:14:37.544Z,22.73
2023-02-07T03:15:14.049Z,22.72
2023-02-07T03:15:50.923Z,22.74
2023-02-07T03:16:27.442Z,22.71
2023-02-07T03:17:03.686Z,22.71
2023-02-07T03:17:39.935Z,22.74
2023-02-07T03:18:16.120Z,22.74
2023-02-07T03:18:51.593Z,22.74
2023-02-07T03:19:28.433Z,22.72
2023-02-07T03:20:04.151Z,22.71
2023-02-07T03:20:40.716Z,22.72
2023-02-07T03:21:17.820Z,22.72
2023-02-07T03:21:54.124Z,22.71
2023-02-07T03:22:30.207Z,22.73
2023-02-07T03:23:06.434Z,22.72
2023-02-07T03:23:42.134Z,22.72
2023-02-07T03:24:18.836Z,22.73
2023-02-07T03:24:55.717Z,22.72
2023-02-07T03:25:32.019Z,22.69
2023-02-07T03:26:08.120Z,22.71
2023-02-07T03:26:44.107Z,22.69
2023-02-07T03:27:20.441Z,22.71
2023-02-07T03:27:56.605Z,22.72
2023-02-07T03:28:32.667Z,22.70
2023-02-07T03:29:08.352Z,22.73
2023-02-07T03:29:44.567Z,22.72
2023-02-07T03:30:20.469Z,22.72
2023-02-07T03:30:56.799Z,22.74
2023-02-07T03:31:33.235Z,22.75
2023-02-07T03:32:09.917Z,22.73
2023-02-07T03:32:46.106Z,22.76
2023-02-07T03:33:22.264Z,22.73
2023-02-07T03:33:58.194Z,22.76
2023-02-07T03:34:34.031Z,22.74
2023-02-07T03:35:10.192Z,22.76
2023-02-07T03:35:46.418Z,22.75
2023-02-07T03:36:22.347Z,22.73
2023-02-07T03:36:58.886Z,22.73
2023-02-07T03:37:35.036Z,22.71
2023-02-07T03:38:11.223Z,22.76
2023-02-07T03:38:46.951Z,22.73
2023-02-07T03:39:23.136Z,22.74
2023-02-07T03:39:58.856Z,22.74
2023-02-07T03:40:35.866Z,22.74
2023-02-07T03:41:11.914Z,22.75
2023-02-07T03:41:47.741Z,22.77
2023-02-07T03:42:23.872Z,22.73
2023-02-07T03:43:00.795Z,22.75
2023-02-07T03:43:37.222Z,22.76
2023-02-07T03:44:13.572Z,22.76
2023-02-07T03:44:49.479Z,22.75
2023-02-07T03:45:25.201Z,22.75
2023-02-07T03:46:01.157Z,22.74
2023-02-07T03:46:37.893Z,22.73
2023-02-07T03:47:14.149Z,22.73
2023-02-07T03:47:50.588Z,22.75
2023-02-07T03:48:26.748Z,22.73
2023-02-07T03:49:03.599Z,22.74
2023-02-07T03:49:40.709Z,22.72
2023-02-07T03:50:16.821Z,22.72
2023-02-07T03:50:52.909Z,22.75
2023-02-07T03:51:29.583Z,22.76
2023-02-07T03:52:05.622Z,22.74
2023-02-07T03:52:41.224Z,22.76
2023-02-07T03:53:17.051Z,22.72
2023-02-07T03:53:53.239Z,22.71
2023-02-07T03:54:29.552Z,22.75
2023-02-07T03:55:05.352Z,22.74
2023-02-07T03:55:41.824Z,22.76
2023-02-07T03:56:18.560Z,22.75
2023-02-07T03:56:55.024Z,22.72
2023-02-07T03:57:31.373Z,22.76
2023-02-07T03:58:07.761Z,22.75
2023-02-07T03:58:43.700Z,22.76
2023-02-07T03:59:19.657Z,22.75
2023-02-07T03:59:55.552Z,22.74
2023-02-07T04:00:32.154Z,22.76
2023-02-07T04:01:08.616Z,22.74
2023-02-07T04:01:44.690Z,22.74
2023-02-07T04:02:21.311Z,22.73
2023-02-07T04:02:57.676Z,22.74
2023-02-07T04:03:33.653Z,22.75
2023-02-07T04:04:09.554Z,22.75
2023-02-07T04:04:46.086Z,22.73
2023-02-07T04:05:22.006Z,22.72
2023-02-07T04:05:58.769Z,22.73
2023-02-07T04:06:34.616Z,22.75
2023-02-07T04:07:11.328Z,22.75
2023-02-07T04:07:47.611Z,22.74
2023-02-07T04:08:24.178Z,22.74
2023-02-07T04:09:00.220Z,22.74
2023-02-07T04:09:35.976Z,22.74
2023-02-07T04:10:11.656Z,22.75
2023-02-07T04:10:48.036Z,22.76
2023-02-07T04:11:24.295Z,22.74
2023-02-07T04:12:00.624Z,22.75
2023-02-07T04:12:37.017Z,22.73
2023-02-07T04:13:13.687Z,22.76
2023-02-07T04:13:50.041Z,22.74
2023-02-07T04:14:26.391Z,22.75
2023-02-07T04:15:03.582Z,22.76
2023-02-07T04:15:40.189Z,22.75
2023-02-07T04:16:16.731Z,22.80
2023-02-07T04:16:53.200Z,22.78
2023-02-07T04:17:31.174Z,22.79
2023-02-07T04:18:06.990Z,22.76
2023-02-07T04:18:43.299Z,22.76
2023-02-07T04:19:19.310Z,22.74
2023-02-07T04:19:55.869Z,22.75
2023-02-07T04:20:31.732Z,22.74
2023-02-07T04:21:08.136Z,22.74
2023-02-07T04:21:44.502Z,22.76
2023-02-07T04:22:21.150Z,22.77
2023-02-07T04:22:57.742Z,22.73
2023-02-07T04:23:34.095Z,22.75
2023-02-07T04:24:09.597Z,22.76
2023-02-07T04:24:45.592Z,22.76
2023-02-07T04:25:22.809Z,22.73
2023-02-07T04:25:58.458Z,22.73
2023-02-07T04:26:34.390Z,22.74
2023-02-07T04:27:10.810Z,22.73
2023-02-07T04:27:47.319Z,22.73
2023-02-07T04:28:24.111Z,22.70
2023-02-07T04:29:00.294Z,22.72
2023-02-07T04:29:36.332Z,22.73
2023-02-07T04:30:13.143Z,22.76
2023-02-07T04:30:49.930Z,22.76
2023-02-07T04:31:26.794Z,22.76
2023-02-07T04:32:03.272Z,22.74
2023-02-07T04:32:39.296Z,22.76
2023-02-07T04:33:15.293Z,22.75
2023-02-07T04:33:51.783Z,22.73
2023-02-07T04:34:27.839Z,22.76
2023-02-07T04:35:03.673Z,22.76
2023-02-07T04:35:39.945Z,22.75
2023-02-07T04:36:16.268Z,22.73
2023-02-07T04:36:53.025Z,22.73
2023-02-07T04:37:29.433Z,22.74
2023-02-07T04:38:06.178Z,22.73
2023-02-07T04:38:42.421Z,22.75
2023-02-07T04:39:18.482Z,22.74
2023-02-07T04:39:53.936Z,22.72
2023-02-07T04:40:30.600Z,22.76
2023-02-07T04:41:07.485Z,22.77
2023-02-07T04:41:44.267Z,22.74
2023-02-07T04:42:20.160Z,22.74
2023-02-07T04:42:57.003Z,22.74
2023-02-07T04:43:33.078Z,22.73
2023-02-07T04:44:08.970Z,22.75
2023-02-07T04:44:44.912Z,22.73
2023-02-07T04:45:21.978Z,22.71
2023-02-07T04:45:58.545Z,22.71
2023-02-07T04:46:35.019Z,22.71
2023-02-07T04:47:11.306Z,22.74
2023-02-07T04:47:47.814Z,22.74
2023-02-07T04:48:24.636Z,22.73
2023-02-07T04:49:00.426Z,22.77
2023-02-07T04:49:35.779Z,22.77
2023-02-07T04:50:12.601Z,22.75
2023-02-07T04:50:48.489Z,22.77
2023-02-07T04:51:24.691Z,22.76
2023-02-07T04:52:01.165Z,22.73
2023-02-07T04:52:37.661Z,22.76
2023-02-07T04:53:13.959Z,22.74
2023-02-07T04:53:50.263Z,22.73
2023-02-07T04:54:26.306Z,22.73
2023-02-07T04:55:02.110Z,22.73
2023-02-07T04:55:38.937Z,22.73
2023-02-07T04:56:15.255Z,22.73
2023-02-07T04:56:51.648Z,22.74
2023-02-07T04:57:27.550Z,22.74
2023-02-07T04:58:03.887Z,22.75
2023-02-07T04:58:40.415Z,22.76
2023-02-07T04:59:16.124Z,22.74
2023-02-07T04:59:51.778Z,22.74
2023-02-07T05:00:27.770Z,22.72
2023-02-07T05:01:03.869Z,22.71
2023-02-07T05:01:40.217Z,22.73
2023-02-07T05:02:16.107Z,22.74
2023-02-07T05:02:52.925Z,22.73
2023-02-07T05:03:29.155Z,22.73
2023-02-07T05:04:05.631Z,22.72
2023-02-07T05:04:41.667Z,22.74
2023-02-07T05:05:16.801Z,22.72
2023-02-07T05:05:53.218Z,22.75
2023-02-07T05:06:30.084Z,22.73
2023-02-07T05:07:06.720Z,22.70
2023-02-07T05:07:42.716Z,22.73
2023-02-07T05:08:18.263Z,22.75
2023-02-07T05:08:54.756Z,22.76
2023-02-07T05:09:30.619Z,22.72
2023-02-07T05:10:06.528Z,22.73
2023-02-07T05:10:42.625Z,22.72
2023-02-07T05:11:18.977Z,22.75
2023-02-07T05:11:54.794Z,22.74
2023-02-07T05:12:31.164Z,22.72
2023-02-07T05:13:07.249Z,22.74
2023-02-07T05:13:43.400Z,22.73
2023-02-07T05:14:20.154Z,22.74
2023-02-07T05:14:57.964Z,22.74
2023-02-07T05:15:34.500Z,22.77
2023-02-07T05:16:10.655Z,22.77
2023-02-07T05:16:47.297Z,22.76
2023-02-07T05:17:23.382Z,22.76
2023-02-07T05:17:59.752Z,22.74
2023-02-07T05:18:36.404Z,22.72
2023-02-07T05:19:12.500Z,22.72
2023-02-07T05:19:48.914Z,22.75
2023-02-07T05:20:24.849Z,22.75
2023-02-07T05:21:00.339Z,22.77
2023-02-07T05:21:37.069Z,22.74
2023-02-07T05:22:13.138Z,22.73
2023-02-07T05:22:49.249Z,22.75
2023-02-07T05:23:25.648Z,22.73
2023-02-07T05:24:02.235Z,22.73
2023-02-07T05:24:37.843Z,22.73
2023-02-07T05:25:13.521Z,22.72
2023-02-07T05:25:49.236Z,22.73
2023-02-07T05:26:25.930Z,22.71
2023-02-07T05:27:01.835Z,22.72
2023-02-07T05:27:38.289Z,22.70
2023-02-07T05:28:14.810Z,22.72
2023-02-07T05:28:50.720Z,22.71
2023-02-07T05:29:26.659Z,22.71
2023-02-07T05:30:04.232Z,22.69
2023-02-07T05:30:40.490Z,22.68
2023-02-07T05:31:17.127Z,22.71
2023-02-07T05:31:53.237Z,22.73
2023-02-07T05:32:29.372Z,22.72
2023-02-07T05:33:05.518Z,22.71
2023-02-07T05:33:41.434Z,22.69
2023-02-07T05:34:17.450Z,22.69
2023-02-07T05:34:53.418Z,22.68
2023-02-07T05:35:29.170Z,22.70
2023-02-07T05:36:04.877Z,22.71
2023-02-07T05:36:41.112Z,22.71
2023-02-07T05:37:16.875Z,22.71
2023-02-07T05:37:53.608Z,22.74
2023-02-07T05:38:30.014Z,22.72
2023-02-07T05:39:06.118Z,22.70
2023-02-07T05:39:41.933Z,22.70
2023-02-07T05:40:18.410Z,22.70
2023-02-07T05:40:54.092Z,22.68
2023-02-07T05:41:29.539Z,22.68
2023-02-07T05:42:05.500Z,22.70
2023-02-07T05:42:42.323Z,22.69
2023-02-07T05:43:18.472Z,22.69
2023-02-07T05:43:54.916Z,22.69
2023-02-07T05:44:31.756Z,22.68
2023-02-07T05:45:08.387Z,22.67
2023-02-07T05:45:44.372Z,22.68
2023-02-07T05:46:20.497Z,22.68
2023-02-07T05:46:56.409Z,22.70
2023-02-07T05:47:32.868Z,22.70
2023-02-07T05:48:08.436Z,22.68
2023-02-07T05:48:45.023Z,22.72
2023-02-07T05:49:21.177Z,22.72
2023-02-07T05:49:57.442Z,22.71
2023-02-07T05:50:33.594Z,22.72
2023-02-07T05:51:09.839Z,22.69
2023-02-07T05:51:45.658Z,22.71
2023-02-07T05:52:21.068Z,22.72
2023-02-07T05:52:57.850Z,22.74
2023-02-07T05:53:34.229Z,22.71
2023-02-07T05:54:10.581Z,22.70
2023-02-07T05:54:46.825Z,22.70
2023-02-07T05:55:22.740Z,22.72
2023-02-07T05:55:58.443Z,22.71
2023-02-07T05:56:34.696Z,22.71
2023-02-07T05:57:11.484Z,22.67
2023-02-07T05:57:47.714Z,22.70
2023-02-07T05:58:23.680Z,22.71
2023-02-07T05:59:00.108Z,22.73
2023-02-07T05:59:36.467Z,22.72
2023-02-07T06:00:12.309Z,22.73
2023-02-07T06:00:48.268Z,22.72
2023-02-07T06:01:24.339Z,22.69
2023-02-07T06:02:00.603Z,22.69
2023-02-07T06:02:37.118Z,22.71
2023-02-07T06:03:13.438Z,22.69
2023-02-07T06:03:49.636Z,22.71
2023-02-07T06:04:26.250Z,22.67
2023-02-07T06:05:03.084Z,22.70
2023-02-07T06:05:39.296Z,22.71
2023-02-07T06:06:14.609Z,22.70
2023-02-07T06:06:51.350Z,22.72
2023-02-07T06:07:27.792Z,22.70
2023-02-07T06:08:03.904Z,22.71
2023-02-07T06:08:40.564Z,22.71
2023-02-07T06:09:16.967Z,22.71
2023-02-07T06:09:52.814Z,22.71
2023-02-07T06:10:29.236Z,22.69
2023-02-07T06:11:05.336Z,22.70
2023-02-07T06:11:41.165Z,22.68
2023-02-07T06:12:18.199Z,22.69
2023-02-07T06:12:54.666Z,22.69
2023-02-07T06:13:31.129Z,22.70
2023-02-07T06:14:07.066Z,22.69
2023-02-07T06:14:43.722Z,22.70
2023-02-07T06:15:20.366Z,22.68
2023-02-07T06:15:56.819Z,22.70
2023-02-07T06:16:32.773Z,22.68
2023-02-07T06:17:08.627Z,22.71
2023-02-07T06:17:44.964Z,22.70
2023-02-07T06:18:20.829Z,22.71
2023-02-07T06:18:57.480Z,22.72
2023-02-07T06:19:34.544Z,22.71
2023-02-07T06:20:10.534Z,22.72
2023-02-07T06:20:46.031Z,22.72
2023-02-07T06:21:22.166Z,22.72
2023-02-07T06:21:58.558Z,22.71
2023-02-07T06:22:34.631Z,22.73
2023-02-07T06:23:11.632Z,22.72
2023-02-07T06:23:48.119Z,22.72
2023-02-07T06:24:24.520Z,22.71
2023-02-07T06:25:00.924Z,22.72
2023-02-07T06:25:37.217Z,22.71
2023-02-07T06:26:13.696Z,22.71
2023-02-07T06:26:49.852Z,22.71
2023-02-07T06:27:25.626Z,22.71
2023-02-07T06:28:02.337Z,22.71
2023-02-07T06:28:38.023Z,22.68
2023-02-07T06:29:14.202Z,22.68
2023-02-07T06:29:51.089Z,22.71
2023-02-07T06:30:27.354Z,22.74
2023-02-07T06:31:02.947Z,22.71
2023-02-07T06:31:39.167Z,22.73
2023-02-07T06:32:15.429Z,22.73
2023-02-07T06:32:51.561Z,22.71
2023-02-07T06:33:28.247Z,22.69
2023-02-07T06:34:05.386Z,22.69
2023-02-07T06:34:41.821Z,22.70
2023-02-07T06:35:18.960Z,22.70
2023-02-07T06:35:55.285Z,22.67
2023-02-07T06:36:31.367Z,22.70
2023-02-07T06:37:08.157Z,22.67
2023-02-07T06:37:44.254Z,22.72
2023-02-07T06:38:20.785Z,22.72
2023-02-07T06:38:56.815Z,22.72
2023-02-07T06:39:33.382Z,22.71
2023-02-07T06:40:10.027Z,22.71
2023-02-07T06:40:46.703Z,22.73
2023-02-07T06:41:22.792Z,22.70
2023-02-07T06:41:58.563Z,22.71
2023-02-07T06:42:34.805Z,22.70
2023-02-07T06:43:11.493Z,22.72
2023-02-07T06:43:48.371Z,22.72
2023-02-07T06:44:25.158Z,22.69
2023-02-07T06:45:01.498Z,22.70
2023-02-07T06:45:39.528Z,22.70
2023-02-07T06:46:15.986Z,22.71
2023-02-07T06:46:51.521Z,22.69
2023-02-07T06:47:27.182Z,22.68
2023-02-07T06:48:03.849Z,22.69
2023-02-07T06:48:40.316Z,22.68
2023-02-07T06:49:16.562Z,22.69
2023-02-07T06:49:53.449Z,22.70
2023-02-07T06:50:30.923Z,22.70
2023-02-07T06:51:07.164Z,22.71
2023-02-07T06:51:43.655Z,22.71
2023-02-07T06:52:20.024Z,22.70
2023-02-07T06:52:55.540Z,22.71
2023-02-07T06:53:32.195Z,22.69
2023-02-07T06:54:08.309Z,22.70
2023-02-07T06:54:44.516Z,22.69
2023-02-07T06:55:20.953Z,22.70
2023-02-07T06:55:57.601Z,22.70
2023-02-07T06:56:33.743Z,22.71
2023-02-07T06:57:10.370Z,22.71
2023-02-07T06:57:46.162Z,22.70
2023-02-07T06:58:21.812Z,22.70
2023-02-07T06:58:57.875Z,22.72
2023-02-07T06:59:33.813Z,22.69
2023-02-07T07:00:10.422Z,22.70
2023-02-07T07:00:46.797Z,22.73
2023-02-07T07:01:22.891Z,22.72
2023-02-07T07:01:58.531Z,22.70
2023-02-07T07:02:34.522Z,22.69
2023-02-07T07:03:11.540Z,22.72
2023-02-07T07:03:47.435Z,22.71
2023-02-07T07:04:24.173Z,22.71
2023-02-07T07:05:00.602Z,22.71
2023-02-07T07:05:37.217Z,22.70
2023-02-07T07:06:13.922Z,22.70
2023-02-07T07:06:49.931Z,22.67
2023-02-07T07:07:26.211Z,22.68
2023-02-07T07:08:01.843Z,22.67
2023-02-07T07:08:38.367Z,22.68
2023-02-07T07:09:14.500Z,22.67
2023-02-07T07:09:50.996Z,22.69
2023-02-07T07:10:27.617Z,22.68
2023-02-07T07:11:03.226Z,22.67
2023-02-07T07:11:39.887Z,22.67
2023-02-07T07:12:15.839Z,22.68
2023-02-07T07:12:51.334Z,22.67
2023-02-07T07:13:27.977Z,22.64
2023-02-07T07:14:04.020Z,22.67
2023-02-07T07:14:39.076Z,22.67
2023-02-07T07:15:15.017Z,22.68
2023-02-07T07:15:51.348Z,22.70
2023-02-07T07:16:27.421Z,22.70
2023-02-07T07:17:03.607Z,22.70
2023-02-07T07:17:40.115Z,22.72
2023-02-07T07:18:16.003Z,22.73
2023-02-07T07:18:52.487Z,22.72
2023-02-07T07:19:28.668Z,22.68
2023-02-07T07:20:04.444Z,22.68
2023-02-07T07:20:40.293Z,22.69
2023-02-07T07:21:16.261Z,22.66
2023-02-07T07:21:53.148Z,22.67
2023-02-07T07:22:29.174Z,22.68
2023-02-07T07:23:05.321Z,22.68
2023-02-07T07:23:41.084Z,22.69
2023-02-07T07:24:17.024Z,22.68
2023-02-07T07:24:53.697Z,22.66
2023-02-07T07:25:29.450Z,22.67
2023-02-07T07:26:05.421Z,22.69
2023-02-07T07:26:49.532Z,22.69
2023-02-07T07:27:25.726Z,22.72
2023-02-07T07:28:01.659Z,22.70
2023-02-07T07:28:38.294Z,22.71
2023-02-07T07:29:14.546Z,22.71
2023-02-07T07:29:50.854Z,22.69
2023-02-07T07:30:26.717Z,22.69
2023-02-07T07:31:02.151Z,22.69
2023-02-07T07:31:38.038Z,22.71
2023-02-07T07:32:22.408Z,22.70
2023-02-07T07:33:07.829Z,22.68
2023-02-07T07:33:44.211Z,22.69
2023-02-07T07:34:20.458Z,22.69
2023-02-07T07:34:56.536Z,22.68
2023-02-07T07:35:32.632Z,22.68
2023-02-07T07:36:09.869Z,22.67
2023-02-07T07:36:44.916Z,22.69
2023-02-07T07:37:22.204Z,22.67
2023-02-07T07:37:58.247Z,22.67
2023-02-07T07:38:34.416Z,22.66
2023-02-07T07:39:10.886Z,22.69
2023-02-07T07:39:47.754Z,22.70
2023-02-07T07:40:24.721Z,22.69
2023-02-07T07:41:00.854Z,22.68
2023-02-07T07:41:37.463Z,22.67
2023-02-07T07:42:13.252Z,22.70
2023-02-07T07:42:49.677Z,22.72
2023-02-07T07:43:26.259Z,22.69
2023-02-07T07:44:02.965Z,22.67
2023-02-07T07:44:39.115Z,22.68
2023-02-07T07:45:15.930Z,22.67
2023-02-07T07:45:52.202Z,22.69
2023-02-07T07:46:28.702Z,22.67
2023-02-07T07:47:04.154Z,22.67
2023-02-07T07:47:40.116Z,22.66